createdAt,value
2023-06-22T00:00:15.463Z,5.28
2023-06-22T00:04:19.627Z,5.65
2023-06-22T00:08:22.586Z,7.65
2023-06-22T00:12:25.557Z,5.25
2023-06-22T00:16:28.753Z,7.05
2023-06-22T00:20:32.175Z,6.20
2023-06-22T00:24:35.541Z,4.60
2023-06-22T00:28:38.555Z,7.22
2023-06-22T00:32:41.450Z,7.18
2023-06-22T00:36:45.657Z,5.05
2023-06-22T00:40:50.491Z,5.72
2023-06-22T00:44:53.522Z,6.13
2023-06-22T00:48:58.316Z,6.10
2023-06-22T00:53:09.400Z,5.88
2023-06-22T00:57:17.768Z,5.25
2023-06-22T01:01:24.942Z,5.15
2023-06-22T01:05:31.324Z,5.10
2023-06-22T01:09:40.413Z,5.15
2023-06-22T01:14:01.302Z,7.65
2023-06-22T01:18:06.684Z,6.45
2023-06-22T01:22:13.733Z,6.15
2023-06-22T01:26:29.733Z,5.22
2023-06-22T01:30:35.031Z,5.78
2023-06-22T01:34:42.193Z,6.60
2023-06-22T01:38:46.981Z,5.63
2023-06-22T01:42:51.459Z,5.97
2023-06-22T01:46:54.723Z,5.85
2023-06-22T01:50:58.278Z,6.20
2023-06-22T01:55:02.384Z,7.20
2023-06-22T01:59:17.100Z,7.10
2023-06-22T02:03:24.279Z,6.80
2023-06-22T02:07:43.105Z,6.07
2023-06-22T02:11:48.388Z,6.53
2023-06-22T02:15:51.936Z,9.40
2023-06-22T02:19:55.122Z,6.60
2023-06-22T02:23:58.405Z,7.25
2023-06-22T02:28:01.540Z,8.43
2023-06-22T02:32:05.386Z,7.05
2023-06-22T02:36:10.341Z,7.20
2023-06-22T02:40:13.985Z,7.82
2023-06-22T02:44:17.325Z,8.40
2023-06-22T02:48:21.364Z,7.45
2023-06-22T02:52:24.707Z,7.60
2023-06-22T02:56:28.657Z,8.93
2023-06-22T03:00:36.131Z,8.15
2023-06-22T03:04:39.333Z,7.57
2023-06-22T03:08:45.450Z,7.85
2023-06-22T03:12:48.731Z,8.70
2023-06-22T03:16:51.754Z,7.90
2023-06-22T03:20:55.656Z,7.55
2023-06-22T03:24:58.720Z,7.97
2023-06-22T03:29:02.831Z,8.40
2023-06-22T03:33:06.941Z,7.88
2023-06-22T03:37:10.835Z,8.90
2023-06-22T03:41:14.067Z,9.02
2023-06-22T03:45:17.513Z,8.68
2023-06-22T03:49:20.569Z,9.10
2023-06-22T03:53:23.599Z,9.15
2023-06-22T03:57:26.564Z,8.85
2023-06-22T04:01:29.603Z,8.55
2023-06-22T04:05:32.534Z,9.88
2023-06-22T04:09:35.714Z,7.43
2023-06-22T04:13:39.009Z,7.82
2023-06-22T04:17:42.134Z,7.50
2023-06-22T04:21:45.748Z,8.40
2023-06-22T04:25:48.821Z,8.80
2023-06-22T04:29:52.428Z,6.93
2023-06-22T04:33:55.397Z,7.75
2023-06-22T04:38:00.148Z,7.68
2023-06-22T04:42:03.325Z,10.75
2023-06-22T04:46:06.967Z,6.75
2023-06-22T04:50:10.337Z,10.90
2023-06-22T04:54:13.523Z,8.70
2023-06-22T04:58:18.230Z,8.73
2023-06-22T05:02:29.105Z,7.93
2023-06-22T05:06:32.201Z,10.18
2023-06-22T05:10:35.379Z,9.60
2023-06-22T05:14:38.469Z,9.80
2023-06-22T05:18:43.195Z,11.18
2023-06-22T05:22:46.905Z,11.93
2023-06-22T05:26:50.097Z,11.02
2023-06-22T05:30:53.282Z,11.15
2023-06-22T05:34:58.306Z,11.77
2023-06-22T05:39:14.284Z,17.55
2023-06-22T05:43:17.713Z,17.98
2023-06-22T05:47:21.266Z,26.08
2023-06-22T05:51:29.105Z,17.77
2023-06-22T05:55:37.625Z,23.20
2023-06-22T05:59:40.951Z,16.48
2023-06-22T06:03:45.641Z,13.25
2023-06-22T06:07:54.716Z,13.15
2023-06-22T06:11:58.083Z,17.52
2023-06-22T06:16:04.693Z,14.68
2023-06-22T06:20:14.237Z,23.63
2023-06-22T06:24:17.814Z,38.10
2023-06-22T06:28:21.419Z,42.35
2023-06-22T06:32:27.497Z,35.60
2023-06-22T06:36:38.660Z,28.17
2023-06-22T06:40:42.407Z,19.17
2023-06-22T06:44:45.365Z,14.80
2023-06-22T06:48:49.475Z,15.40
2023-06-22T06:52:52.794Z,18.40
2023-06-22T06:56:56.122Z,14.45
2023-06-22T07:00:59.231Z,15.50
2023-06-22T07:05:05.872Z,13.93
2023-06-22T07:09:08.895Z,13.75
2023-06-22T07:13:12.041Z,12.48
2023-06-22T07:17:15.121Z,12.07
2023-06-22T07:21:18.130Z,13.55
2023-06-22T07:25:21.135Z,10.52
2023-06-22T07:29:24.812Z,8.35
2023-06-22T07:33:29.241Z,8.85
2023-06-22T07:37:34.354Z,9.88
2023-06-22T07:41:37.508Z,9.50
2023-06-22T07:45:41.770Z,10.63
2023-06-22T07:49:44.945Z,7.25
2023-06-22T07:53:48.011Z,7.95
2023-06-22T07:57:54.818Z,7.70
2023-06-22T08:01:58.191Z,7.57
2023-06-22T08:06:01.208Z,9.60
2023-06-22T08:10:04.915Z,9.82
2023-06-22T08:14:07.918Z,10.98
2023-06-22T08:18:11.005Z,8.27
2023-06-22T08:22:14.142Z,7.95
2023-06-22T08:26:17.379Z,10.23
2023-06-22T08:30:23.028Z,8.20
2023-06-22T08:34:26.588Z,9.00
2023-06-22T08:38:29.633Z,8.38
2023-06-22T08:42:32.705Z,8.88
2023-06-22T08:46:35.892Z,9.38
2023-06-22T08:50:39.025Z,11.25
2023-06-22T08:54:43.360Z,9.90
2023-06-22T08:58:46.343Z,9.63
2023-06-22T09:02:50.061Z,9.73
2023-06-22T09:06:53.487Z,12.73
2023-06-22T09:10:56.609Z,8.55
2023-06-22T09:15:04.111Z,9.38
2023-06-22T09:19:08.956Z,7.57
2023-06-22T09:23:11.874Z,7.05
2023-06-22T09:27:14.888Z,7.35
2023-06-22T09:31:18.127Z,7.45
2023-06-22T09:35:21.397Z,8.25
2023-06-22T09:39:24.541Z,5.95
2023-06-22T09:43:28.116Z,6.88
2023-06-22T09:47:31.118Z,7.63
2023-06-22T09:51:34.359Z,6.22
2023-06-22T09:55:37.861Z,6.32
2023-06-22T09:59:44.124Z,6.90
2023-06-22T10:03:47.288Z,7.03
2023-06-22T10:07:50.334Z,6.32
2023-06-22T10:11:53.241Z,5.38
2023-06-22T10:15:56.123Z,5.43
2023-06-22T10:19:59.238Z,4.75
2023-06-22T10:24:07.486Z,8.05
2023-06-22T10:28:10.711Z,6.35
2023-06-22T10:32:13.642Z,4.47
2023-06-22T10:36:16.806Z,6.03
2023-06-22T10:40:20.271Z,4.50
2023-06-22T10:44:23.420Z,5.30
2023-06-22T10:48:27.473Z,6.65
2023-06-22T10:52:30.391Z,5.85
2023-06-22T10:56:35.172Z,5.28
2023-06-22T11:00:38.312Z,4.90
2023-06-22T11:04:41.416Z,5.65
2023-06-22T11:08:53.548Z,5.47
2023-06-22T11:13:11.090Z,5.57
2023-06-22T11:17:15.078Z,5.15
2023-06-22T11:21:17.925Z,5.45
2023-06-22T11:25:21.839Z,4.75
2023-06-22T11:29:36.840Z,5.18
2023-06-22T11:33:40.756Z,5.20
2023-06-22T11:37:45.245Z,4.32
2023-06-22T11:41:49.873Z,11.38
2023-06-22T11:45:53.194Z,4.43
2023-06-22T11:49:56.180Z,5.88
2023-06-22T11:54:00.238Z,5.60
2023-06-22T11:58:05.047Z,4.47
2023-06-22T12:02:16.530Z,7.80
2023-06-22T12:06:19.654Z,4.13
2023-06-22T12:10:23.703Z,4.43
2023-06-22T12:14:26.680Z,4.53
2023-06-22T12:18:29.585Z,6.97
2023-06-22T12:22:36.020Z,5.38
2023-06-22T12:26:39.032Z,6.35
2023-06-22T12:30:41.986Z,4.78
2023-06-22T12:34:45.746Z,6.15
2023-06-22T12:38:48.991Z,6.50
2023-06-22T12:42:52.328Z,6.22
2023-06-22T12:46:55.343Z,7.00
2023-06-22T12:50:58.379Z,6.18
2023-06-22T12:55:01.320Z,6.68
2023-06-22T12:59:05.571Z,4.78
2023-06-22T13:03:08.761Z,6.82
2023-06-22T13:11:18.002Z,7.68
2023-06-22T13:15:20.941Z,8.10
2023-06-22T13:19:23.858Z,8.38
2023-06-22T13:23:27.018Z,5.57
2023-06-22T13:27:30.030Z,6.55
2023-06-22T13:31:32.915Z,3.53
2023-06-22T13:35:38.988Z,6.20
2023-06-22T13:39:42.222Z,7.50
2023-06-22T13:43:45.118Z,7.50
2023-06-22T13:47:48.374Z,6.10
2023-06-22T13:51:51.418Z,8.25
2023-06-22T13:55:55.259Z,6.47
2023-06-22T13:59:58.201Z,5.57
2023-06-22T14:04:02.971Z,4.80
2023-06-22T14:08:13.226Z,5.00
2023-06-22T14:12:29.305Z,4.82
2023-06-22T14:16:32.340Z,5.90
2023-06-22T14:20:35.209Z,7.45
2023-06-22T14:24:38.070Z,5.57
2023-06-22T14:28:41.245Z,5.47
2023-06-22T14:32:45.527Z,6.55
2023-06-22T14:36:48.439Z,6.82
2023-06-22T14:41:11.824Z,6.38
2023-06-22T14:45:15.178Z,9.93
2023-06-22T14:49:18.075Z,6.15
2023-06-22T14:53:21.321Z,5.50
2023-06-22T14:57:24.506Z,4.85
2023-06-22T15:01:27.813Z,6.25
2023-06-22T15:05:30.897Z,6.40
2023-06-22T15:09:34.575Z,5.45
2023-06-22T15:13:41.052Z,9.10
2023-06-22T15:17:43.982Z,7.05
2023-06-22T15:21:47.049Z,4.38
2023-06-22T15:25:50.014Z,6.90
2023-06-22T15:29:52.910Z,6.20
2023-06-22T15:33:56.085Z,7.05
2023-06-22T15:37:58.980Z,8.50
2023-06-22T15:42:02.135Z,5.85
2023-06-22T15:46:05.221Z,4.32
2023-06-22T15:50:08.537Z,5.20
2023-06-22T15:54:13.369Z,6.10
2023-06-22T15:58:18.274Z,8.38
2023-06-22T16:02:22.157Z,7.83
2023-06-22T16:06:25.223Z,8.48
2023-06-22T16:10:28.342Z,8.15
2023-06-22T16:14:31.916Z,7.22
2023-06-22T16:18:34.926Z,7.75
2023-06-22T16:22:38.910Z,8.32
2023-06-22T16:26:43.285Z,525.22
2023-06-22T16:30:46.344Z,383.90
2023-06-22T16:34:49.685Z,369.73
2023-06-22T16:38:52.671Z,86.53
2023-06-22T16:42:56.229Z,139.23
2023-06-22T16:47:06.400Z,37.08
2023-06-22T16:51:13.002Z,39.60
2023-06-22T16:55:16.028Z,21.73
2023-06-22T16:59:19.126Z,13.65
2023-06-22T17:03:27.401Z,10.95
2023-06-22T17:07:33.133Z,8.27
2023-06-22T17:11:36.103Z,8.45
2023-06-22T17:15:41.826Z,9.23
2023-06-22T17:23:55.185Z,17.10
2023-06-22T17:28:02.152Z,20.88
2023-06-22T17:32:06.183Z,8.95
2023-06-22T17:36:15.448Z,8.63
2023-06-22T17:40:24.462Z,7.93
2023-06-22T17:44:28.937Z,7.32
2023-06-22T17:48:32.248Z,6.35
2023-06-22T17:52:35.358Z,6.32
2023-06-22T17:56:38.865Z,32.78
2023-06-22T18:00:44.512Z,19.10
2023-06-22T18:08:52.430Z,9.18
2023-06-22T18:12:57.383Z,5.47
2023-06-22T18:17:01.182Z,4.60
2023-06-22T18:21:05.801Z,6.32
2023-06-22T18:25:09.802Z,5.93
2023-06-22T18:29:13.368Z,6.57
2023-06-22T18:33:16.582Z,6.45
2023-06-22T18:37:20.441Z,6.50
2023-06-22T18:41:42.249Z,5.40
2023-06-22T18:45:45.513Z,7.30
2023-06-22T18:49:58.694Z,6.03
2023-06-22T19:07:08.359Z,6.03
2023-06-22T19:11:15.612Z,4.25
2023-06-22T19:15:21.525Z,5.22
2023-06-22T19:19:25.329Z,4.10
2023-06-22T19:32:22.057Z,4.22
2023-06-22T19:36:25.624Z,6.18
2023-06-22T19:40:29.579Z,6.30
2023-06-22T19:44:32.857Z,4.38
2023-06-22T19:48:35.965Z,5.43
2023-06-22T19:52:42.070Z,4.68
2023-06-22T19:56:48.631Z,4.72
2023-06-22T20:01:00.447Z,4.43
2023-06-22T20:05:08.755Z,6.93
2023-06-22T20:09:14.648Z,4.03
2023-06-22T20:13:22.400Z,4.72
2023-06-22T20:17:25.976Z,6.15
2023-06-22T20:21:29.803Z,4.90
2023-06-22T20:25:36.226Z,3.90
2023-06-22T20:29:40.648Z,4.13
2023-06-22T20:33:47.178Z,6.70
2023-06-22T20:37:55.144Z,3.42
2023-06-22T20:41:59.434Z,4.28
2023-06-22T20:46:03.583Z,4.00
2023-06-22T20:50:08.010Z,7.20
2023-06-22T20:54:11.435Z,4.20
2023-06-22T20:58:14.954Z,4.75
2023-06-22T21:02:18.144Z,6.80
2023-06-22T21:06:21.182Z,4.03
2023-06-22T21:10:24.787Z,4.10
2023-06-22T21:14:27.780Z,5.15
2023-06-22T21:18:30.611Z,4.57
2023-06-22T21:22:34.048Z,6.07
2023-06-22T21:26:37.181Z,7.82
2023-06-22T21:30:40.164Z,5.03
2023-06-22T21:34:43.629Z,4.57
2023-06-22T21:38:46.897Z,4.97
2023-06-22T21:42:51.805Z,5.35
2023-06-22T21:46:55.410Z,7.72
2023-06-22T21:50:58.462Z,3.95
2023-06-22T21:55:02.205Z,4.72
2023-06-22T21:59:05.454Z,4.05
2023-06-22T22:03:08.878Z,4.13
2023-06-22T22:07:12.438Z,5.50
2023-06-22T22:11:15.662Z,5.28
2023-06-22T22:15:18.707Z,6.30
2023-06-22T22:19:21.941Z,5.72
2023-06-22T22:23:26.978Z,3.90
2023-06-22T22:27:30.152Z,4.38
2023-06-22T22:31:39.926Z,5.47
2023-06-22T22:35:43.925Z,4.32
2023-06-22T22:39:48.733Z,4.55
2023-06-22T22:47:56.619Z,3.75
2023-06-22T22:51:59.745Z,4.55
2023-06-22T22:56:03.443Z,4.32
2023-06-22T23:00:10.514Z,7.82
2023-06-22T23:04:19.128Z,5.70
2023-06-22T23:08:22.258Z,4.88
2023-06-22T23:12:26.226Z,4.75
2023-06-22T23:16:30.340Z,5.45
2023-06-22T23:20:33.375Z,4.10
2023-06-22T23:24:37.234Z,5.03
2023-06-22T23:28:40.330Z,2.80
2023-06-22T23:32:43.313Z,4.07
2023-06-22T23:36:46.600Z,5.93
2023-06-22T23:40:50.964Z,4.53
2023-06-22T23:44:55.220Z,4.63
2023-06-22T23:48:59.717Z,4.10
2023-06-22T23:53:03.457Z,3.92
2023-06-22T23:57:07.290Z,4.85
